Time;durP1;ratioP1;P1;durP2;ratioP2;P2;SDS_P1;SDS_P2;PMS_P1;PMS_P2;Temp;Humidity;BMP_temperature;BMP_pressure;BME280_temperature;BME280_humidity;BME280_pressure;Samples;Min_cycle;Max_cycle;Signal;HPM_P1;HPM_P2
2022/03/12 00:02:12;;;;;;;7.13;1.13;;;;;;;5.99;100.00;99871.56;4996212;28;20086;-81
2022/03/12 00:04:40;;;;;;;6.47;1.52;;;;;;;5.96;100.00;99872.13;4967922;28;20033;-81
2022/03/12 00:07:34;;;;;;;8.57;1.42;;;;;;;5.93;100.00;99883.69;4980870;28;20038;-81
2022/03/12 00:10:00;;;;;;;7.93;1.23;;;;;;;5.91;100.00;99887.81;4994257;28;20088;-81
2022/03/12 00:12:43;;;;;;;11.75;1.25;;;;;;;5.90;100.00;99875.94;4966139;28;20034;-81
2022/03/12 00:15:31;;;;;;;6.85;1.10;;;;;;;5.86;100.00;99887.81;5000229;28;20061;-81
2022/03/12 00:18:01;;;;;;;6.55;1.30;;;;;;;5.82;100.00;99880.13;4986916;28;20037;-81
2022/03/12 00:20:31;;;;;;;13.98;1.77;;;;;;;5.84;100.00;99877.06;5001677;28;20131;-81
2022/03/12 00:23:09;;;;;;;;;;;;;;;;;;;;;
2022/03/12 00:25:37;;;;;;;9.85;1.48;;;;;;;5.81;100.00;99892.22;4993509;28;20035;-81
2022/03/12 00:28:11;;;;;;;7.95;1.10;;;;;;;5.76;100.00;99888.66;4988178;28;20619;-81
2022/03/12 00:30:38;;;;;;;7.38;1.08;;;;;;;5.75;100.00;99895.28;4968772;28;20482;-80
2022/03/12 00:33:07;;;;;;;7.53;1.33;;;;;;;5.72;100.00;99891.16;4970410;28;20025;-80
2022/03/12 00:35:34;;;;;;;5.20;1.00;;;;;;;5.70;100.00;99882.31;4993702;28;20025;-81
2022/03/12 00:38:03;;;;;;;7.03;1.55;;;;;;;5.65;100.00;99884.25;5011217;28;20107;-81
2022/03/12 00:40:32;;;;;;;7.63;1.45;;;;;;;5.65;100.00;99885.06;4986352;28;20056;-81
2022/03/12 00:43:00;;;;;;;3.75;0.95;;;;;;;5.61;100.00;99889.50;4985353;28;20026;-81
2022/03/12 00:45:28;;;;;;;8.90;1.20;;;;;;;5.58;100.00;99885.38;5005455;28;20037;-81
2022/03/12 00:47:59;;;;;;;6.57;1.05;;;;;;;5.55;100.00;99885.91;4975522;28;20038;-80
2022/03/12 00:50:39;;;;;;;8.02;1.30;;;;;;;5.51;100.00;99886.75;4991290;28;20033;-81
2022/03/12 00:53:11;;;;;;;4.32;0.93;;;;;;;5.48;100.00;99890.88;4991934;28;20033;-80
2022/03/12 00:55:50;;;;;;;7.13;1.10;;;;;;;5.45;100.00;99894.19;4980423;28;20038;-81
2022/03/12 00:58:23;;;;;;;4.70;1.13;;;;;;;5.40;100.00;99898.84;4992411;28;20083;-81
2022/03/12 01:00:56;;;;;;;6.65;1.48;;;;;;;5.41;100.00;99906.84;4961358;28;20552;-81
2022/03/12 01:03:29;;;;;;;6.13;1.20;;;;;;;5.35;100.00;99899.69;4991450;28;20029;-81
2022/03/12 01:06:18;;;;;;;6.32;1.40;;;;;;;5.29;100.00;99909.88;4973765;28;20029;-81
2022/03/12 01:08:52;;;;;;;6.13;0.88;;;;;;;5.28;100.00;99919.22;4971114;28;20030;-81
2022/03/12 01:11:18;;;;;;;9.57;1.17;;;;;;;5.25;100.00;99925.28;5003719;28;20041;-81
2022/03/12 01:13:44;;;;;;;8.63;0.93;;;;;;;5.23;100.00;99921.13;4989872;28;20034;-80
2022/03/12 01:16:22;;;;;;;7.45;1.10;;;;;;;5.22;100.00;99916.75;4978751;28;20029;-81
2022/03/12 01:18:53;;;;;;;7.05;1.50;;;;;;;5.21;100.00;99926.09;4994074;28;20057;-81
2022/03/12 01:21:28;;;;;;;6.22;1.35;;;;;;;5.19;100.00;99929.13;4988075;28;20034;-81
2022/03/12 01:24:11;;;;;;;5.00;1.20;;;;;;;5.18;100.00;99929.38;4975426;28;20031;-80
2022/03/12 01:26:44;;;;;;;;;;;;;;;5.09;100.00;99931.84;4970317;28;20502;-80
2022/03/12 01:29:12;;;;;;;6.80;1.33;;;;;;;5.14;100.00;99942.88;4967159;28;19976;-80
2022/03/12 01:31:38;;;;;;;9.85;1.27;;;;;;;5.09;100.00;99942.84;4978313;28;20509;-81
2022/03/12 01:34:21;;;;;;;8.18;1.38;;;;;;;5.09;100.00;99934.59;4960710;28;20128;-81
2022/03/12 01:36:57;;;;;;;5.53;1.17;;;;;;;5.06;100.00;99938.72;5008063;28;20030;-81
2022/03/12 01:39:45;;;;;;;4.22;1.00;;;;;;;5.05;100.00;99937.09;4965727;28;20036;-81
2022/03/12 01:42:22;;;;;;;6.55;1.20;;;;;;;5.05;100.00;99934.31;4988184;28;20247;-80
2022/03/12 01:44:53;;;;;;;7.22;1.05;;;;;;;5.01;100.00;99930.44;4988024;28;20040;-80
2022/03/12 01:47:21;;;;;;;5.22;1.15;;;;;;;5.01;100.00;99938.72;4958312;28;20029;-81
2022/03/12 01:49:49;;;;;;;9.02;1.30;;;;;;;5.01;100.00;99933.19;4996017;28;20382;-81
2022/03/12 01:52:18;;;;;;;7.38;1.08;;;;;;;4.97;100.00;99934.84;4969781;28;20111;-81
2022/03/12 01:54:47;;;;;;;7.55;1.25;;;;;;;4.95;100.00;99942.53;4991729;28;20113;-81
2022/03/12 01:57:32;;;;;;;6.57;1.42;;;;;;;4.95;100.00;99945.31;4979346;28;20125;-81
2022/03/12 02:00:02;;;;;;;10.60;1.23;;;;;;;4.97;100.00;99947.78;4979230;28;20038;-80
2022/03/12 02:02:31;;;;;;;6.00;1.10;;;;;;;4.91;100.00;99946.94;4975758;28;20124;-81
2022/03/12 02:05:05;;;;;;;6.18;1.10;;;;;;;4.90;100.00;99961.78;4964924;28;20022;-80
2022/03/12 02:07:31;;;;;;;8.48;1.33;;;;;;;4.84;100.00;99951.88;4987845;28;20034;-80
2022/03/12 02:10:03;;;;;;;7.03;1.02;;;;;;;4.84;100.00;99960.13;4990997;28;20077;-80
2022/03/12 02:12:36;;;;;;;9.70;1.70;;;;;;;4.86;100.00;99963.44;4963881;28;20069;-80
2022/03/12 02:15:02;;;;;;;5.85;0.98;;;;;;;4.82;100.00;99959.56;4975198;28;20031;-80
2022/03/12 02:17:28;;;;;;;8.18;1.55;;;;;;;4.84;100.00;99966.44;5003170;28;20096;-80
2022/03/12 02:19:55;;;;;;;9.43;1.52;;;;;;;4.81;100.00;99974.41;4977152;28;20050;-80
2022/03/12 02:22:24;;;;;;;9.40;0.98;;;;;;;4.79;100.00;99968.34;4996981;28;20249;-80
2022/03/12 02:24:55;;;;;;;7.38;1.00;;;;;;;4.82;100.00;99971.41;5018753;28;20150;-80
2022/03/12 02:27:35;;;;;;;9.23;1.67;;;;;;;4.82;100.00;99971.41;4982108;28;20038;-80
2022/03/12 02:30:02;;;;;;;9.82;1.50;;;;;;;4.84;100.00;99969.19;4989444;28;20046;-80
2022/03/12 02:32:28;;;;;;;10.02;1.30;;;;;;;4.86;100.00;99960.69;4992808;28;20088;-80
2022/03/12 02:34:59;;;;;;;6.65;1.30;;;;;;;4.87;100.00;99968.66;4999154;28;20120;-80
2022/03/12 02:37:34;;;;;;;8.38;1.27;;;;;;;4.88;100.00;99966.75;4950689;28;20060;-80
2022/03/12 02:40:05;;;;;;;10.73;1.48;;;;;;;4.88;100.00;99970.34;4983721;28;20064;-80
2022/03/12 02:42:39;;;;;;;8.18;1.23;;;;;;;4.89;100.00;99982.97;4983569;28;20498;-80
2022/03/12 02:45:09;;;;;;;9.65;1.83;;;;;;;4.88;100.00;99975.84;4984707;28;20478;-81
2022/03/12 02:47:36;;;;;;;10.93;1.60;;;;;;;4.87;100.00;99984.34;4971799;28;20037;-81
2022/03/12 02:50:09;;;;;;;10.15;1.63;;;;;;;4.90;100.00;99987.41;4995506;28;20112;-80
2022/03/12 02:52:41;;;;;;;10.65;1.45;;;;;;;4.87;100.00;99978.84;4976871;28;20037;-81
2022/03/12 02:55:14;;;;;;;10.45;1.95;;;;;;;4.85;100.00;99975.56;4974484;28;20085;-81
2022/03/12 02:57:49;;;;;;;11.50;1.70;;;;;;;4.90;100.00;99983.81;5004429;28;20092;-80
2022/03/12 03:00:18;;;;;;;8.02;1.30;;;;;;;4.91;100.00;99990.97;4985548;28;20030;-81
2022/03/12 03:02:53;;;;;;;13.80;2.05;;;;;;;4.91;100.00;99986.31;4969738;28;20066;-80
2022/03/12 03:05:45;;;;;;;8.57;1.85;;;;;;;4.95;100.00;99988.50;4960156;28;20608;-81
2022/03/12 03:08:47;;;;;;;9.75;1.90;;;;;;;4.94;100.00;99984.94;4992416;28;20062;-80
2022/03/12 03:11:39;;;;;;;13.25;1.73;;;;;;;4.97;100.00;99984.41;4990621;28;20474;-80
2022/03/12 03:14:15;;;;;;;9.77;1.70;;;;;;;4.99;100.00;99982.22;4988707;28;20026;-80
2022/03/12 03:16:41;;;;;;;12.20;2.28;;;;;;;5.01;100.00;99973.66;4989101;28;20023;-80
2022/03/12 03:19:09;;;;;;;12.20;2.22;;;;;;;5.00;100.00;99974.78;5010704;28;20085;-81
2022/03/12 03:21:37;;;;;;;8.45;1.52;;;;;;;5.02;100.00;99969.84;5001068;28;20053;-80
2022/03/12 03:24:09;;;;;;;10.45;1.75;;;;;;;5.01;100.00;99965.41;5010686;28;20048;-80
2022/03/12 03:26:38;;;;;;;15.20;1.90;;;;;;;4.99;100.00;99965.69;4971378;28;20112;-81
2022/03/12 03:29:13;;;;;;;13.68;2.33;;;;;;;5.02;100.00;99964.31;4985357;28;20052;-81
2022/03/12 03:31:39;;;;;;;12.73;2.15;;;;;;;5.02;100.00;99962.41;4997321;28;20034;-80
2022/03/12 03:34:07;;;;;;;14.75;2.13;;;;;;;5.01;100.00;99960.72;4990573;28;20093;-81
2022/03/12 03:40:04;;;;;;;;;;;;;;;4.96;100.00;99962.63;4996808;28;20042;-81
2022/03/12 03:42:45;;;;;;;9.57;1.45;;;;;;;4.92;100.00;99959.59;5001863;28;19960;-80
2022/03/12 03:45:22;;;;;;;11.35;1.83;;;;;;;4.93;100.00;99956.59;4973189;28;20065;-81
2022/03/12 03:47:51;;;;;;;13.38;1.77;;;;;;;4.97;100.00;99959.63;5017582;28;20547;-80
2022/03/12 03:50:25;;;;;;;9.65;1.60;;;;;;;4.92;100.00;99962.34;4975788;28;20475;-80
2022/03/12 03:53:01;;;;;;;12.20;1.65;;;;;;;4.91;100.00;99969.78;4996339;28;20026;-80
2022/03/12 03:55:31;;;;;;;9.00;1.50;;;;;;;4.90;100.00;99972.78;4972726;28;20478;-80
2022/03/12 03:58:00;;;;;;;9.60;2.17;;;;;;;4.88;100.00;99972.25;4969666;28;20066;-80
2022/03/12 04:00:34;;;;;;;7.07;1.98;;;;;;;4.86;100.00;99971.69;4985499;28;20059;-80
2022/03/12 04:03:13;;;;;;;12.82;1.90;;;;;;;4.86;100.00;99971.69;4974339;28;20467;-80
2022/03/12 04:05:43;;;;;;;13.73;1.75;;;;;;;4.83;100.00;99972.22;4973277;28;20444;-80
2022/03/12 04:08:10;;;;;;;13.85;2.25;;;;;;;4.76;100.00;99971.63;4969229;28;20045;-80
2022/03/12 04:10:36;;;;;;;9.05;1.67;;;;;;;4.77;100.00;99965.06;4992231;28;20034;-80
2022/03/12 04:13:13;;;;;;;12.05;1.95;;;;;;;4.75;100.00;99957.06;4981033;28;20030;-81
2022/03/12 04:15:53;;;;;;;12.15;1.83;;;;;;;4.70;100.00;99960.59;4997176;28;20080;-81
2022/03/12 04:18:27;;;;;;;12.88;1.58;;;;;;;4.73;100.00;99966.69;5015937;28;20030;-80
2022/03/12 04:21:06;;;;;;;11.85;1.52;;;;;;;4.73;100.00;99962.00;4973807;28;20023;-80
2022/03/12 04:23:34;;;;;;;9.60;1.67;;;;;;;4.69;100.00;99961.72;4990901;28;20053;-81
2022/03/12 04:26:00;;;;;;;14.98;2.00;;;;;;;4.65;100.00;99955.13;5006247;28;20031;-80
2022/03/12 04:28:36;;;;;;;6.88;1.85;;;;;;;4.65;100.00;99960.63;4977380;28;20034;-80
2022/03/12 04:31:08;;;;;;;12.10;2.08;;;;;;;4.62;100.00;99965.81;4965614;28;20042;-80
2022/03/12 04:33:38;;;;;;;17.23;2.33;;;;;;;4.60;100.00;99966.09;5007599;28;20684;-81
2022/03/12 04:36:12;;;;;;;12.85;2.03;;;;;;;4.61;100.00;99973.22;4982599;28;20089;-81
2022/03/12 04:38:40;;;;;;;11.82;2.15;;;;;;;4.60;100.00;99979.03;4990086;28;20084;-81
2022/03/12 04:41:06;;;;;;;16.50;1.83;;;;;;;4.56;100.00;99989.69;4980741;28;20094;-80
2022/03/12 04:43:34;;;;;;;16.40;2.00;;;;;;;4.54;100.00;100005.66;4964953;28;20026;-80
2022/03/12 04:46:08;;;;;;;12.73;1.65;;;;;;;4.54;100.00;100005.66;4997921;28;20022;-80
2022/03/12 04:48:36;;;;;;;10.93;2.00;;;;;;;4.56;100.00;100006.19;4992007;28;20061;-81
2022/03/12 04:51:02;;;;;;;10.10;1.92;;;;;;;4.59;100.00;100015.84;4985604;28;20450;-80
2022/03/12 04:53:30;;;;;;;9.57;1.83;;;;;;;4.62;100.00;100018.88;5030723;28;20030;-80
2022/03/12 04:56:13;;;;;;;12.43;2.05;;;;;;;4.65;100.00;100023.88;4978481;28;20034;-81
2022/03/12 04:58:56;;;;;;;12.55;2.00;;;;;;;4.66;100.00;100022.78;4961141;28;20507;-81
2022/03/12 05:01:21;;;;;;;13.83;1.80;;;;;;;4.67;100.00;100029.09;4967103;28;20074;-81
2022/03/12 05:03:52;;;;;;;9.35;1.65;;;;;;;4.72;100.00;100031.06;5002579;28;20661;-81
2022/03/12 05:06:31;;;;;;;12.35;2.05;;;;;;;4.76;100.00;100035.75;4987500;28;20022;-81
2022/03/12 05:08:57;;;;;;;7.03;1.77;;;;;;;4.82;100.00;100036.59;4948813;28;20432;-81
2022/03/12 05:12:12;;;;;;;12.13;1.63;;;;;;;4.88;100.00;100030.03;4989431;28;20054;-81
2022/03/12 05:14:51;;;;;;;11.18;1.73;;;;;;;4.90;100.00;100027.81;5009162;28;20503;-81
2022/03/12 05:17:17;;;;;;;10.77;2.15;;;;;;;4.93;100.00;100033.66;4985549;28;20026;-81
2022/03/12 05:19:52;;;;;;;13.77;2.10;;;;;;;4.96;100.00;100026.78;4966648;28;20448;-81
2022/03/12 05:22:28;;;;;;;12.40;1.60;;;;;;;4.98;100.00;100030.06;4991273;28;20050;-81
2022/03/12 05:25:18;;;;;;;14.90;2.67;;;;;;;5.01;100.00;100024.03;4963299;28;20034;-81
2022/03/12 05:28:01;;;;;;;13.20;2.20;;;;;;;5.00;100.00;100016.88;4981897;28;20030;-81
2022/03/12 05:30:48;;;;;;;10.68;2.05;;;;;;;5.04;100.00;100017.16;4970097;28;20023;-80
2022/03/12 05:33:26;;;;;;;12.95;2.05;;;;;;;5.03;100.00;100010.81;4963527;28;20035;-81
2022/03/12 05:36:12;;;;;;;12.35;2.10;;;;;;;5.03;100.00;100019.09;4963407;28;20027;-80
2022/03/12 05:38:42;;;;;;;13.55;2.00;;;;;;;5.03;100.00;100015.50;4975299;28;20035;-81
2022/03/12 05:41:11;;;;;;;12.80;2.03;;;;;;;5.02;100.00;100025.69;4966640;28;20095;-81
2022/03/12 05:43:57;;;;;;;11.70;2.00;;;;;;;5.00;100.00;100016.88;4986527;28;20520;-81
2022/03/12 05:46:35;;;;;;;10.50;1.80;;;;;;;4.98;100.00;100019.06;4966084;28;20026;-81
2022/03/12 05:49:36;;;;;;;15.77;2.20;;;;;;;4.92;100.00;100026.47;4973160;28;20042;-81
2022/03/12 05:52:15;;;;;;;7.00;1.90;;;;;;;4.87;100.00;100028.38;4978517;28;20049;-80
2022/03/12 05:54:41;;;;;;;11.27;2.00;;;;;;;4.82;100.00;100028.34;4977199;28;20031;-80
2022/03/12 05:57:12;;;;;;;9.13;2.08;;;;;;;4.83;100.00;100041.03;4973789;28;20034;-80
2022/03/12 05:59:49;;;;;;;9.50;1.80;;;;;;;4.74;100.00;100035.19;4987056;28;20026;-80
2022/03/12 06:02:17;;;;;;;13.15;1.92;;;;;;;4.70;100.00;100037.63;4944508;28;20061;-81
2022/03/12 06:04:51;;;;;;;11.07;2.03;;;;;;;4.70;100.00;100045.88;4947001;28;20106;-81
2022/03/12 06:07:17;;;;;;;16.08;2.15;;;;;;;4.69;100.00;100036.00;4978766;28;20018;-77
2022/03/12 06:09:43;;;;;;;12.23;2.28;;;;;;;4.66;100.00;100038.47;4995004;28;20030;-78
2022/03/12 06:12:15;;;;;;;9.20;1.90;;;;;;;4.61;100.00;100050.25;4996603;28;20034;-78
2022/03/12 06:14:41;;;;;;;15.63;2.55;;;;;;;4.56;100.00;100054.88;4996621;28;20054;-78
2022/03/12 06:17:07;;;;;;;8.40;2.17;;;;;;;4.52;100.00;100051.84;4982326;28;20640;-78
2022/03/12 06:19:32;;;;;;;16.52;2.85;;;;;;;4.48;100.00;100062.56;4966131;28;20396;-77
2022/03/12 06:21:58;;;;;;;9.35;2.42;;;;;;;4.44;100.00;100058.66;4985963;28;20026;-78
2022/03/12 06:24:23;;;;;;;14.80;2.40;;;;;;;4.38;100.00;100061.66;4989211;28;20022;-77
2022/03/12 06:26:49;;;;;;;17.05;2.45;;;;;;;4.36;100.00;100066.59;5002878;28;20035;-77
2022/03/12 06:29:16;;;;;;;11.25;2.25;;;;;;;4.33;100.00;100054.19;4997313;28;20031;-77
2022/03/12 06:31:41;;;;;;;17.80;3.00;;;;;;;4.29;100.00;100054.97;5001767;28;20065;-77
2022/03/12 06:34:09;;;;;;;16.10;3.00;;;;;;;4.26;100.00;100048.06;4989549;28;20031;-77
2022/03/12 06:36:37;;;;;;;15.95;3.00;;;;;;;4.26;100.00;100048.06;5005581;28;20031;-77
2022/03/12 06:39:04;;;;;;;13.38;3.03;;;;;;;4.21;100.00;100059.88;4979712;28;20447;-78
2022/03/12 06:41:38;;;;;;;12.63;2.75;;;;;;;4.20;100.00;100063.69;5000160;28;20034;-77
2022/03/12 06:44:04;;;;;;;13.15;3.08;;;;;;;4.18;100.00;100065.91;4982878;28;20487;-77
2022/03/12 06:46:30;;;;;;;18.30;3.63;;;;;;;4.16;100.00;100083.75;4982692;28;20088;-77
2022/03/12 06:48:56;;;;;;;17.15;3.83;;;;;;;4.12;100.00;100080.66;4996401;28;20033;-78
2022/03/12 06:51:22;;;;;;;20.25;4.43;;;;;;;4.17;100.00;100085.38;5003633;28;20411;-78
2022/03/12 06:53:47;;;;;;;16.45;4.03;;;;;;;4.13;100.00;100087.03;4981024;28;20031;-77
2022/03/12 06:56:13;;;;;;;12.80;3.85;;;;;;;4.11;100.00;100098.25;4982415;28;20373;-76
2022/03/12 06:58:38;;;;;;;13.95;3.22;;;;;;;4.11;100.00;100097.44;5001992;28;20034;-77
2022/03/12 07:01:04;;;;;;;12.18;3.42;;;;;;;4.16;100.00;100094.75;4983106;28;20090;-77
2022/03/12 07:03:29;;;;;;;15.25;3.50;;;;;;;4.10;100.00;100090.28;4979163;28;20041;-77
2022/03/12 07:05:55;;;;;;;18.83;3.55;;;;;;;4.12;100.00;100088.09;4988314;28;20031;-77
2022/03/12 07:08:21;;;;;;;17.55;3.28;;;;;;;4.09;100.00;100092.19;5000862;28;20038;-77
2022/03/12 07:10:47;;;;;;;16.42;3.50;;;;;;;4.11;100.00;100092.75;4982465;28;20105;-77
2022/03/12 07:13:13;;;;;;;18.13;3.45;;;;;;;4.12;100.00;100088.91;4992990;28;20031;-77
2022/03/12 07:15:38;;;;;;;16.00;3.60;;;;;;;4.13;100.00;100087.84;4992211;28;20033;-77
2022/03/12 07:18:05;;;;;;;19.33;3.83;;;;;;;4.15;100.00;100088.41;4998658;28;20046;-77
2022/03/12 07:20:31;;;;;;;11.93;3.33;;;;;;;4.17;100.00;100088.97;4998623;28;20406;-77
2022/03/12 07:22:57;;;;;;;16.05;3.05;;;;;;;4.23;100.00;100090.69;5002085;28;20075;-77
2022/03/12 07:25:25;;;;;;;14.05;3.20;;;;;;;4.28;100.00;100097.31;5025727;28;20062;-77
2022/03/12 07:27:52;;;;;;;16.55;3.20;;;;;;;4.34;100.00;100079.75;5012665;28;20027;-77
2022/03/12 07:30:17;;;;;;;15.88;3.00;;;;;;;4.42;100.00;100077.34;4996937;28;20064;-76
2022/03/12 07:32:43;;;;;;;11.32;2.60;;;;;;;4.51;100.00;100079.59;5008574;28;20034;-77
2022/03/12 07:35:11;;;;;;;15.82;2.92;;;;;;;4.61;100.00;100076.94;4996964;28;20069;-77
2022/03/12 07:37:36;;;;;;;15.65;2.90;;;;;;;4.70;100.00;100076.16;4992057;28;20055;-77
2022/03/12 07:40:03;;;;;;;15.82;2.88;;;;;;;4.83;100.00;100071.28;4980201;28;20495;-77
2022/03/12 07:42:30;;;;;;;13.88;2.60;;;;;;;4.94;100.00;100073.00;4991477;28;20035;-77
2022/03/12 07:44:56;;;;;;;11.40;2.78;;;;;;;5.09;100.00;100086.00;4997780;28;20046;-77
2022/03/12 07:47:21;;;;;;;15.40;2.88;;;;;;;5.22;100.00;100095.69;4965777;28;20482;-78
2022/03/12 07:49:47;;;;;;;11.23;2.42;;;;;;;5.36;100.00;100096.84;4984624;28;20025;-76
2022/03/12 07:52:12;;;;;;;14.32;2.97;;;;;;;5.50;100.00;100095.25;5010265;28;20034;-77
2022/03/12 07:54:37;;;;;;;14.27;2.55;;;;;;;5.63;100.00;100104.09;4997359;28;20049;-79
2022/03/12 07:57:03;;;;;;;13.57;2.45;;;;;;;5.77;100.00;100099.75;4975634;28;20372;-80
2022/03/12 07:59:35;;;;;;;16.75;3.05;;;;;;;5.91;100.00;100092.59;5010320;28;20090;-80
2022/03/12 08:02:06;;;;;;;18.10;2.80;;;;;;;6.06;100.00;100110.28;4966129;28;20551;-80
2022/03/12 08:04:33;;;;;;;22.25;3.00;;;;;;;6.21;100.00;100110.28;4989234;28;20034;-80
2022/03/12 08:07:02;;;;;;;13.93;2.78;;;;;;;6.36;100.00;100115.81;5000089;28;20029;-80
2022/03/12 08:09:33;;;;;;;21.58;3.45;;;;;;;6.55;100.00;100118.03;4998128;28;20034;-80
2022/03/12 08:12:06;;;;;;;21.17;3.20;;;;;;;6.66;100.00;100119.69;4965525;28;20118;-80
2022/03/12 08:14:35;;;;;;;;;;;;;;;6.81;100.00;100124.34;4976372;28;20038;-80
2022/03/12 08:17:01;;;;;;;21.95;4.30;;;;;;;6.93;100.00;100131.19;4981562;28;19913;-81
2022/03/12 08:20:05;;;;;;;24.50;2.95;;;;;;;7.12;100.00;100134.19;4959349;28;20054;-80
2022/03/12 08:23:07;;;;;;;18.98;2.90;;;;;;;7.28;100.00;100137.75;4993981;28;20144;-80
2022/03/12 08:25:32;;;;;;;24.10;3.33;;;;;;;7.44;100.00;100148.75;5002371;28;20478;-78
2022/03/12 08:28:01;;;;;;;18.35;2.50;;;;;;;7.57;100.00;100150.91;5016929;28;20116;-79
2022/03/12 08:30:29;;;;;;;19.67;3.10;;;;;;;7.73;100.00;100149.72;4984479;28;20026;-79
2022/03/12 08:32:58;;;;;;;22.40;3.30;;;;;;;7.87;100.00;100155.47;4999758;28;20046;-79
2022/03/12 08:35:26;;;;;;;13.43;2.55;;;;;;;8.01;100.00;100159.25;4974437;28;20033;-83
2022/03/12 08:38:29;;;;;;;20.30;3.05;;;;;;;8.15;100.00;100159.44;4977667;28;20687;-84
2022/03/12 08:42:07;;;;;;;15.88;2.83;;;;;;;8.34;100.00;100150.47;4981278;28;20061;-81
2022/03/12 08:44:39;;;;;;;18.33;3.08;;;;;;;8.56;100.00;100150.88;5018209;28;20033;-83
2022/03/12 08:47:43;;;;;;;;;;;;;;;;;;;;;
2022/03/12 08:50:48;;;;;;;14.48;2.90;;;;;;;8.91;100.00;100154.44;5028310;28;20041;-81
2022/03/12 09:06:17;;;;;;;21.77;2.65;;;;;;;9.63;100.00;100141.44;4878711;29;20052;-84
2022/03/12 09:18:23;;;;;;;17.38;2.90;;;;;;;10.22;100.00;100124.53;4728294;30;20062;-83
2022/03/12 09:34:07;;;;;;;;;;;;;;;;;;;;;
2022/03/12 10:14:30;;;;;;;;;;;;;;;;;;;;;
2022/03/12 10:21:45;;;;;;;;;;;;;;;;;;;;;
2022/03/12 10:29:19;;;;;;;;;;;;;;;;;;;;;
2022/03/12 10:51:34;;;;;;;12.63;1.58;;;;;;;13.36;80.38;100059.78;4775627;29;20197;-86
2022/03/12 11:07:12;;;;;;;12.20;2.20;;;;;;;13.94;76.27;100039.03;4775044;29;20036;-84
2022/03/12 11:18:48;;;;;;;13.27;2.00;;;;;;;14.29;74.89;100059.41;4747357;30;20077;-84
2022/03/12 11:22:39;;;;;;;;;;;;;;;;;;;;;
2022/03/12 11:34:56;;;;;;;16.27;2.05;;;;;;;14.74;65.57;100019.88;4660639;30;20185;-83
2022/03/12 11:39:23;;;;;;;;;;;;;;;;;;;;;
2022/03/12 11:46:17;;;;;;;;;;;;;;;;;;;;;
